sensor_id;sensor_type;location;lat;lon;timestamp;P1;durP1;ratioP1;P2;durP2;ratioP2
71767;SDS011;59604;52.138;5.446;2022-09-28T00:00:29;9.80;;;3.80;;
71767;SDS011;59604;52.138;5.446;2022-09-28T00:02:56;9.50;;;3.58;;
71767;SDS011;59604;52.138;5.446;2022-09-28T00:05:24;10.43;;;3.88;;
71767;SDS011;59604;52.138;5.446;2022-09-28T00:07:53;9.48;;;3.78;;
71767;SDS011;59604;52.138;5.446;2022-09-28T00:10:21;8.82;;;3.70;;
71767;SDS011;59604;52.138;5.446;2022-09-28T00:12:48;8.60;;;3.28;;
71767;SDS011;59604;52.138;5.446;2022-09-28T00:15:16;8.25;;;3.65;;
71767;SDS011;59604;52.138;5.446;2022-09-28T00:17:43;7.93;;;3.10;;
71767;SDS011;59604;52.138;5.446;2022-09-28T00:20:10;8.45;;;3.33;;
71767;SDS011;59604;52.138;5.446;2022-09-28T00:22:37;8.65;;;3.63;;
71767;SDS011;59604;52.138;5.446;2022-09-28T00:25:05;10.40;;;3.40;;
71767;SDS011;59604;52.138;5.446;2022-09-28T00:27:32;10.75;;;3.53;;
71767;SDS011;59604;52.138;5.446;2022-09-28T00:29:58;8.23;;;3.30;;
71767;SDS011;59604;52.138;5.446;2022-09-28T00:32:25;10.20;;;3.70;;
71767;SDS011;59604;52.138;5.446;2022-09-28T00:34:51;7.22;;;2.95;;
71767;SDS011;59604;52.138;5.446;2022-09-28T00:37:18;10.13;;;3.38;;
71767;SDS011;59604;52.138;5.446;2022-09-28T00:39:46;8.45;;;3.20;;
71767;SDS011;59604;52.138;5.446;2022-09-28T00:42:20;8.50;;;3.05;;
71767;SDS011;59604;52.138;5.446;2022-09-28T00:55:39;9.85;;;3.30;;
71767;SDS011;59604;52.138;5.446;2022-09-28T00:58:08;9.82;;;3.42;;
71767;SDS011;59604;52.138;5.446;2022-09-28T01:00:37;7.20;;;3.10;;
71767;SDS011;59604;52.138;5.446;2022-09-28T01:03:06;8.95;;;3.15;;
71767;SDS011;59604;52.138;5.446;2022-09-28T01:05:34;10.07;;;3.13;;
71767;SDS011;59604;52.138;5.446;2022-09-28T01:08:02;9.63;;;3.40;;
71767;SDS011;59604;52.138;5.446;2022-09-28T01:10:29;8.35;;;2.95;;
71767;SDS011;59604;52.138;5.446;2022-09-28T01:12:56;7.13;;;2.90;;
71767;SDS011;59604;52.138;5.446;2022-09-28T01:15:25;9.00;;;3.22;;
71767;SDS011;59604;52.138;5.446;2022-09-28T01:17:57;8.55;;;3.10;;
71767;SDS011;59604;52.138;5.446;2022-09-28T01:20:47;9.32;;;3.17;;
71767;SDS011;59604;52.138;5.446;2022-09-28T01:28:52;8.13;;;3.03;;
71767;SDS011;59604;52.138;5.446;2022-09-28T01:31:29;6.82;;;2.65;;
71767;SDS011;59604;52.138;5.446;2022-09-28T01:34:09;6.60;;;2.50;;
71767;SDS011;59604;52.138;5.446;2022-09-28T01:36:47;6.00;;;2.83;;
71767;SDS011;59604;52.138;5.446;2022-09-28T01:39:20;8.57;;;2.80;;
71767;SDS011;59604;52.138;5.446;2022-09-28T01:41:52;8.20;;;2.60;;
71767;SDS011;59604;52.138;5.446;2022-09-28T01:44:21;7.60;;;2.70;;
71767;SDS011;59604;52.138;5.446;2022-09-28T01:46:52;7.78;;;2.70;;
71767;SDS011;59604;52.138;5.446;2022-09-28T01:54:30;6.55;;;2.58;;
71767;SDS011;59604;52.138;5.446;2022-09-28T01:59:56;7.07;;;2.65;;
71767;SDS011;59604;52.138;5.446;2022-09-28T02:02:28;11.07;;;3.10;;
71767;SDS011;59604;52.138;5.446;2022-09-28T02:05:01;7.97;;;2.97;;
71767;SDS011;59604;52.138;5.446;2022-09-28T02:10:42;7.03;;;2.80;;
71767;SDS011;59604;52.138;5.446;2022-09-28T02:13:19;8.40;;;2.75;;
71767;SDS011;59604;52.138;5.446;2022-09-28T02:15:50;9.10;;;2.85;;
71767;SDS011;59604;52.138;5.446;2022-09-28T02:18:23;9.20;;;2.72;;
71767;SDS011;59604;52.138;5.446;2022-09-28T02:21:06;6.95;;;3.00;;
71767;SDS011;59604;52.138;5.446;2022-09-28T02:23:38;11.27;;;2.95;;
71767;SDS011;59604;52.138;5.446;2022-09-28T02:26:10;7.30;;;2.97;;
71767;SDS011;59604;52.138;5.446;2022-09-28T02:28:41;8.07;;;3.15;;
71767;SDS011;59604;52.138;5.446;2022-09-28T02:31:08;8.13;;;2.70;;
71767;SDS011;59604;52.138;5.446;2022-09-28T02:33:35;8.25;;;3.08;;
71767;SDS011;59604;52.138;5.446;2022-09-28T02:36:05;7.88;;;3.05;;
71767;SDS011;59604;52.138;5.446;2022-09-28T02:38:32;7.65;;;2.88;;
71767;SDS011;59604;52.138;5.446;2022-09-28T03:00:58;7.05;;;3.08;;
71767;SDS011;59604;52.138;5.446;2022-09-28T03:03:36;9.32;;;3.92;;
71767;SDS011;59604;52.138;5.446;2022-09-28T03:06:13;9.32;;;3.63;;
71767;SDS011;59604;52.138;5.446;2022-09-28T03:08:47;7.88;;;3.20;;
71767;SDS011;59604;52.138;5.446;2022-09-28T03:11:24;9.48;;;3.55;;
71767;SDS011;59604;52.138;5.446;2022-09-28T03:13:56;10.13;;;3.53;;
71767;SDS011;59604;52.138;5.446;2022-09-28T03:16:23;8.60;;;3.58;;
71767;SDS011;59604;52.138;5.446;2022-09-28T03:18:50;9.43;;;3.85;;
71767;SDS011;59604;52.138;5.446;2022-09-28T03:21:16;9.95;;;3.10;;
71767;SDS011;59604;52.138;5.446;2022-09-28T03:23:43;9.50;;;3.60;;
71767;SDS011;59604;52.138;5.446;2022-09-28T03:26:10;8.85;;;3.63;;
71767;SDS011;59604;52.138;5.446;2022-09-28T03:28:37;9.15;;;3.40;;
71767;SDS011;59604;52.138;5.446;2022-09-28T03:31:04;10.30;;;3.90;;
71767;SDS011;59604;52.138;5.446;2022-09-28T03:33:31;8.45;;;3.70;;
71767;SDS011;59604;52.138;5.446;2022-09-28T03:35:57;8.38;;;3.35;;
71767;SDS011;59604;52.138;5.446;2022-09-28T03:38:24;9.70;;;3.42;;
71767;SDS011;59604;52.138;5.446;2022-09-28T03:40:54;8.90;;;3.67;;
71767;SDS011;59604;52.138;5.446;2022-09-28T03:43:22;8.43;;;3.08;;
71767;SDS011;59604;52.138;5.446;2022-09-28T03:45:59;7.72;;;3.15;;
71767;SDS011;59604;52.138;5.446;2022-09-28T03:48:27;10.07;;;3.30;;
71767;SDS011;59604;52.138;5.446;2022-09-28T03:50:59;7.53;;;2.75;;
71767;SDS011;59604;52.138;5.446;2022-09-28T03:53:27;7.93;;;2.90;;
71767;SDS011;59604;52.138;5.446;2022-09-28T03:56:01;7.43;;;2.85;;
71767;SDS011;59604;52.138;5.446;2022-09-28T03:58:29;7.93;;;2.63;;
71767;SDS011;59604;52.138;5.446;2022-09-28T04:01:00;5.60;;;2.30;;
71767;SDS011;59604;52.138;5.446;2022-09-28T04:03:30;8.27;;;2.65;;
71767;SDS011;59604;52.138;5.446;2022-09-28T04:05:57;9.30;;;2.80;;
71767;SDS011;59604;52.138;5.446;2022-09-28T04:08:24;9.52;;;2.58;;
71767;SDS011;59604;52.138;5.446;2022-09-28T04:10:50;6.55;;;2.30;;
71767;SDS011;59604;52.138;5.446;2022-09-28T04:13:17;6.95;;;2.30;;
71767;SDS011;59604;52.138;5.446;2022-09-28T04:15:50;7.47;;;2.50;;
71767;SDS011;59604;52.138;5.446;2022-09-28T04:20:45;7.28;;;2.75;;
71767;SDS011;59604;52.138;5.446;2022-09-28T04:23:13;7.28;;;2.53;;
71767;SDS011;59604;52.138;5.446;2022-09-28T04:25:40;6.63;;;2.50;;
71767;SDS011;59604;52.138;5.446;2022-09-28T04:28:07;7.32;;;2.47;;
71767;SDS011;59604;52.138;5.446;2022-09-28T04:30:53;7.93;;;2.58;;
71767;SDS011;59604;52.138;5.446;2022-09-28T04:33:19;6.78;;;2.60;;
71767;SDS011;59604;52.138;5.446;2022-09-28T04:35:46;6.38;;;2.50;;
71767;SDS011;59604;52.138;5.446;2022-09-28T04:38:12;6.60;;;2.58;;
71767;SDS011;59604;52.138;5.446;2022-09-28T04:40:38;7.40;;;2.72;;
71767;SDS011;59604;52.138;5.446;2022-09-28T04:43:05;7.63;;;2.60;;
71767;SDS011;59604;52.138;5.446;2022-09-28T04:45:32;7.40;;;2.78;;
71767;SDS011;59604;52.138;5.446;2022-09-28T04:47:58;7.78;;;2.80;;
71767;SDS011;59604;52.138;5.446;2022-09-28T04:50:25;7.03;;;2.80;;
71767;SDS011;59604;52.138;5.446;2022-09-28T04:52:51;7.15;;;2.78;;
71767;SDS011;59604;52.138;5.446;2022-09-28T04:55:18;8.50;;;2.63;;
71767;SDS011;59604;52.138;5.446;2022-09-28T04:57:45;6.07;;;2.50;;
71767;SDS011;59604;52.138;5.446;2022-09-28T05:00:12;7.50;;;2.53;;
71767;SDS011;59604;52.138;5.446;2022-09-28T05:02:39;6.85;;;2.65;;
71767;SDS011;59604;52.138;5.446;2022-09-28T05:05:08;6.47;;;2.33;;
71767;SDS011;59604;52.138;5.446;2022-09-28T05:07:34;8.00;;;2.58;;
71767;SDS011;59604;52.138;5.446;2022-09-28T05:10:01;7.38;;;2.55;;
71767;SDS011;59604;52.138;5.446;2022-09-28T05:12:27;6.80;;;2.60;;
71767;SDS011;59604;52.138;5.446;2022-09-28T05:14:53;6.85;;;2.42;;
71767;SDS011;59604;52.138;5.446;2022-09-28T05:17:21;9.73;;;3.92;;
71767;SDS011;59604;52.138;5.446;2022-09-28T05:19:48;9.15;;;3.75;;
71767;SDS011;59604;52.138;5.446;2022-09-28T05:22:14;7.72;;;3.13;;
71767;SDS011;59604;52.138;5.446;2022-09-28T05:24:41;7.45;;;2.67;;
71767;SDS011;59604;52.138;5.446;2022-09-28T05:27:08;7.25;;;2.80;;
71767;SDS011;59604;52.138;5.446;2022-09-28T05:29:34;7.18;;;2.60;;
71767;SDS011;59604;52.138;5.446;2022-09-28T05:32:00;6.63;;;2.40;;
71767;SDS011;59604;52.138;5.446;2022-09-28T05:34:27;5.47;;;2.05;;
71767;SDS011;59604;52.138;5.446;2022-09-28T05:36:54;5.80;;;1.90;;
71767;SDS011;59604;52.138;5.446;2022-09-28T05:39:20;5.10;;;1.95;;
71767;SDS011;59604;52.138;5.446;2022-09-28T05:41:47;5.30;;;2.00;;
71767;SDS011;59604;52.138;5.446;2022-09-28T05:44:14;5.18;;;2.00;;
71767;SDS011;59604;52.138;5.446;2022-09-28T05:46:40;5.82;;;1.83;;
71767;SDS011;59604;52.138;5.446;2022-09-28T05:49:07;5.88;;;1.90;;
71767;SDS011;59604;52.138;5.446;2022-09-28T05:51:33;5.25;;;1.88;;
71767;SDS011;59604;52.138;5.446;2022-09-28T05:54:00;5.35;;;1.77;;
71767;SDS011;59604;52.138;5.446;2022-09-28T05:56:31;5.68;;;1.92;;
71767;SDS011;59604;52.138;5.446;2022-09-28T05:58:58;4.57;;;1.58;;
71767;SDS011;59604;52.138;5.446;2022-09-28T06:01:24;4.50;;;1.50;;
71767;SDS011;59604;52.138;5.446;2022-09-28T06:03:51;5.28;;;1.70;;
71767;SDS011;59604;52.138;5.446;2022-09-28T06:06:17;4.60;;;1.75;;
71767;SDS011;59604;52.138;5.446;2022-09-28T06:08:43;5.57;;;1.90;;
71767;SDS011;59604;52.138;5.446;2022-09-28T06:11:11;4.85;;;1.80;;
71767;SDS011;59604;52.138;5.446;2022-09-28T06:13:38;5.35;;;1.70;;
71767;SDS011;59604;52.138;5.446;2022-09-28T06:16:12;7.93;;;1.50;;
71767;SDS011;59604;52.138;5.446;2022-09-28T06:18:40;4.63;;;1.73;;
71767;SDS011;59604;52.138;5.446;2022-09-28T06:21:07;4.88;;;1.88;;
71767;SDS011;59604;52.138;5.446;2022-09-28T06:23:36;5.75;;;1.50;;
71767;SDS011;59604;52.138;5.446;2022-09-28T06:26:05;5.07;;;1.42;;
71767;SDS011;59604;52.138;5.446;2022-09-28T06:28:32;4.45;;;1.40;;
71767;SDS011;59604;52.138;5.446;2022-09-28T06:30:59;4.00;;;1.30;;
71767;SDS011;59604;52.138;5.446;2022-09-28T06:33:26;4.55;;;1.60;;
71767;SDS011;59604;52.138;5.446;2022-09-28T06:35:53;4.88;;;1.33;;
71767;SDS011;59604;52.138;5.446;2022-09-28T06:38:20;3.95;;;1.40;;
71767;SDS011;59604;52.138;5.446;2022-09-28T06:40:47;3.45;;;1.42;;
71767;SDS011;59604;52.138;5.446;2022-09-28T06:43:13;4.00;;;1.35;;
71767;SDS011;59604;52.138;5.446;2022-09-28T06:45:41;3.85;;;1.30;;
71767;SDS011;59604;52.138;5.446;2022-09-28T06:48:08;4.35;;;1.50;;
71767;SDS011;59604;52.138;5.446;2022-09-28T06:50:37;3.90;;;1.33;;
71767;SDS011;59604;52.138;5.446;2022-09-28T06:53:06;3.83;;;1.38;;
71767;SDS011;59604;52.138;5.446;2022-09-28T06:55:37;4.85;;;1.90;;
71767;SDS011;59604;52.138;5.446;2022-09-28T06:58:12;4.07;;;1.42;;
71767;SDS011;59604;52.138;5.446;2022-09-28T07:00:41;6.40;;;2.60;;
71767;SDS011;59604;52.138;5.446;2022-09-28T07:03:11;6.32;;;2.10;;
71767;SDS011;59604;52.138;5.446;2022-09-28T07:05:40;5.00;;;1.83;;
71767;SDS011;59604;52.138;5.446;2022-09-28T07:08:08;7.20;;;1.75;;
71767;SDS011;59604;52.138;5.446;2022-09-28T07:10:39;6.40;;;2.00;;
71767;SDS011;59604;52.138;5.446;2022-09-28T07:13:07;4.75;;;1.73;;
71767;SDS011;59604;52.138;5.446;2022-09-28T07:15:47;4.38;;;1.45;;
71767;SDS011;59604;52.138;5.446;2022-09-28T07:18:14;5.97;;;1.50;;
71767;SDS011;59604;52.138;5.446;2022-09-28T07:20:40;4.30;;;1.50;;
71767;SDS011;59604;52.138;5.446;2022-09-28T07:23:19;3.70;;;1.30;;
71767;SDS011;59604;52.138;5.446;2022-09-28T07:25:46;4.20;;;1.38;;
71767;SDS011;59604;52.138;5.446;2022-09-28T07:28:15;4.32;;;1.20;;
71767;SDS011;59604;52.138;5.446;2022-09-28T07:30:42;4.22;;;1.30;;
71767;SDS011;59604;52.138;5.446;2022-09-28T07:33:11;4.68;;;1.48;;
71767;SDS011;59604;52.138;5.446;2022-09-28T07:35:40;4.38;;;1.20;;
71767;SDS011;59604;52.138;5.446;2022-09-28T07:38:07;4.15;;;1.17;;
71767;SDS011;59604;52.138;5.446;2022-09-28T07:40:35;4.20;;;1.45;;
71767;SDS011;59604;52.138;5.446;2022-09-28T07:43:21;4.38;;;1.20;;
71767;SDS011;59604;52.138;5.446;2022-09-28T07:45:51;3.50;;;1.27;;
71767;SDS011;59604;52.138;5.446;2022-09-28T07:48:19;5.63;;;1.50;;
71767;SDS011;59604;52.138;5.446;2022-09-28T07:53:20;4.00;;;1.20;;
71767;SDS011;59604;52.138;5.446;2022-09-28T07:55:51;3.72;;;1.10;;
71767;SDS011;59604;52.138;5.446;2022-09-28T07:58:18;3.97;;;1.30;;
71767;SDS011;59604;52.138;5.446;2022-09-28T08:00:46;3.90;;;1.35;;
71767;SDS011;59604;52.138;5.446;2022-09-28T08:03:18;4.03;;;1.33;;
71767;SDS011;59604;52.138;5.446;2022-09-28T08:05:47;3.80;;;1.27;;
71767;SDS011;59604;52.138;5.446;2022-09-28T08:08:14;3.67;;;1.10;;
71767;SDS011;59604;52.138;5.446;2022-09-28T08:10:41;3.03;;;1.08;;
71767;SDS011;59604;52.138;5.446;2022-09-28T08:13:12;4.43;;;1.10;;
71767;SDS011;59604;52.138;5.446;2022-09-28T08:15:40;4.10;;;1.10;;
71767;SDS011;59604;52.138;5.446;2022-09-28T08:18:07;4.45;;;1.30;;
71767;SDS011;59604;52.138;5.446;2022-09-28T08:20:34;5.70;;;1.20;;
71767;SDS011;59604;52.138;5.446;2022-09-28T08:23:26;3.42;;;1.10;;
71767;SDS011;59604;52.138;5.446;2022-09-28T08:25:53;3.65;;;1.10;;
71767;SDS011;59604;52.138;5.446;2022-09-28T08:28:20;4.03;;;1.02;;
71767;SDS011;59604;52.138;5.446;2022-09-28T08:30:48;3.95;;;0.90;;
71767;SDS011;59604;52.138;5.446;2022-09-28T08:33:16;5.97;;;1.10;;
71767;SDS011;59604;52.138;5.446;2022-09-28T08:35:53;4.00;;;1.05;;
71767;SDS011;59604;52.138;5.446;2022-09-28T08:38:26;3.83;;;1.05;;
71767;SDS011;59604;52.138;5.446;2022-09-28T08:46:32;3.20;;;0.82;;
71767;SDS011;59604;52.138;5.446;2022-09-28T08:49:07;4.85;;;0.85;;
71767;SDS011;59604;52.138;5.446;2022-09-28T08:57:21;4.75;;;0.88;;
71767;SDS011;59604;52.138;5.446;2022-09-28T08:59:56;5.45;;;0.88;;
71767;SDS011;59604;52.138;5.446;2022-09-28T09:02:31;2.65;;;0.68;;
71767;SDS011;59604;52.138;5.446;2022-09-28T09:05:02;4.07;;;0.80;;
71767;SDS011;59604;52.138;5.446;2022-09-28T09:16:00;2.65;;;0.60;;
71767;SDS011;59604;52.138;5.446;2022-09-28T09:18:41;2.15;;;0.60;;
71767;SDS011;59604;52.138;5.446;2022-09-28T09:21:14;2.85;;;0.50;;
71767;SDS011;59604;52.138;5.446;2022-09-28T09:23:53;1.92;;;0.40;;
71767;SDS011;59604;52.138;5.446;2022-09-28T09:26:42;1.83;;;0.47;;
71767;SDS011;59604;52.138;5.446;2022-09-28T09:29:11;2.67;;;0.57;;
71767;SDS011;59604;52.138;5.446;2022-09-28T09:40:41;2.28;;;0.50;;
71767;SDS011;59604;52.138;5.446;2022-09-28T09:46:09;2.05;;;0.40;;
71767;SDS011;59604;52.138;5.446;2022-09-28T09:48:55;2.35;;;0.50;;
71767;SDS011;59604;52.138;5.446;2022-09-28T09:51:44;1.73;;;0.50;;
71767;SDS011;59604;52.138;5.446;2022-09-28T09:54:21;1.83;;;0.40;;
71767;SDS011;59604;52.138;5.446;2022-09-28T09:56:58;1.55;;;0.40;;
71767;SDS011;59604;52.138;5.446;2022-09-28T09:59:36;0.95;;;0.25;;
71767;SDS011;59604;52.138;5.446;2022-09-28T10:02:25;1.23;;;0.30;;
71767;SDS011;59604;52.138;5.446;2022-09-28T10:04:56;1.98;;;0.50;;
71767;SDS011;59604;52.138;5.446;2022-09-28T10:07:38;1.45;;;0.30;;
71767;SDS011;59604;52.138;5.446;2022-09-28T10:10:11;2.10;;;0.30;;
71767;SDS011;59604;52.138;5.446;2022-09-28T10:12:45;0.75;;;0.30;;
71767;SDS011;59604;52.138;5.446;2022-09-28T10:15:18;1.25;;;0.20;;
71767;SDS011;59604;52.138;5.446;2022-09-28T10:17:57;1.35;;;0.30;;
71767;SDS011;59604;52.138;5.446;2022-09-28T10:20:28;1.83;;;0.30;;
71767;SDS011;59604;52.138;5.446;2022-09-28T10:22:59;1.13;;;0.32;;
71767;SDS011;59604;52.138;5.446;2022-09-28T10:25:30;1.48;;;0.40;;
71767;SDS011;59604;52.138;5.446;2022-09-28T10:28:03;0.95;;;0.30;;
71767;SDS011;59604;52.138;5.446;2022-09-28T10:30:33;1.58;;;0.30;;
71767;SDS011;59604;52.138;5.446;2022-09-28T10:33:09;1.30;;;0.30;;
71767;SDS011;59604;52.138;5.446;2022-09-28T10:35:57;1.13;;;0.30;;
71767;SDS011;59604;52.138;5.446;2022-09-28T10:38:26;0.75;;;0.30;;
71767;SDS011;59604;52.138;5.446;2022-09-28T10:40:57;0.95;;;0.20;;
71767;SDS011;59604;52.138;5.446;2022-09-28T10:43:30;1.27;;;0.20;;
71767;SDS011;59604;52.138;5.446;2022-09-28T10:46:06;1.58;;;0.30;;
71767;SDS011;59604;52.138;5.446;2022-09-28T10:48:55;0.20;;;0.10;;
71767;SDS011;59604;52.138;5.446;2022-09-28T10:51:42;1.80;;;0.40;;
71767;SDS011;59604;52.138;5.446;2022-09-28T10:54:13;1.40;;;0.30;;
71767;SDS011;59604;52.138;5.446;2022-09-28T10:56:54;0.50;;;0.20;;
71767;SDS011;59604;52.138;5.446;2022-09-28T11:01:55;2.30;;;0.55;;
71767;SDS011;59604;52.138;5.446;2022-09-28T11:04:28;0.85;;;0.20;;
71767;SDS011;59604;52.138;5.446;2022-09-28T11:06:59;1.60;;;0.38;;
71767;SDS011;59604;52.138;5.446;2022-09-28T11:09:27;1.77;;;0.30;;
71767;SDS011;59604;52.138;5.446;2022-09-28T11:11:59;1.67;;;0.40;;
71767;SDS011;59604;52.138;5.446;2022-09-28T11:14:32;3.08;;;0.55;;
71767;SDS011;59604;52.138;5.446;2022-09-28T11:19:59;1.23;;;0.40;;
71767;SDS011;59604;52.138;5.446;2022-09-28T11:27:58;1.85;;;0.50;;
71767;SDS011;59604;52.138;5.446;2022-09-28T11:30:30;2.03;;;0.55;;
71767;SDS011;59604;52.138;5.446;2022-09-28T11:33:19;1.80;;;0.60;;
71767;SDS011;59604;52.138;5.446;2022-09-28T11:54:57;2.03;;;0.68;;
71767;SDS011;59604;52.138;5.446;2022-09-28T11:57:26;1.55;;;0.50;;
71767;SDS011;59604;52.138;5.446;2022-09-28T12:00:00;2.28;;;0.65;;
71767;SDS011;59604;52.138;5.446;2022-09-28T12:02:33;1.80;;;0.60;;
71767;SDS011;59604;52.138;5.446;2022-09-28T12:07:46;2.83;;;0.60;;
71767;SDS011;59604;52.138;5.446;2022-09-28T12:10:19;2.30;;;0.63;;
71767;SDS011;59604;52.138;5.446;2022-09-28T12:15:53;2.60;;;0.73;;
71767;SDS011;59604;52.138;5.446;2022-09-28T12:18:49;1.90;;;0.57;;
71767;SDS011;59604;52.138;5.446;2022-09-28T12:23:50;3.55;;;0.80;;
71767;SDS011;59604;52.138;5.446;2022-09-28T12:26:30;3.25;;;0.70;;
71767;SDS011;59604;52.138;5.446;2022-09-28T12:29:13;2.70;;;0.50;;
71767;SDS011;59604;52.138;5.446;2022-09-28T12:31:51;2.63;;;0.50;;
71767;SDS011;59604;52.138;5.446;2022-09-28T12:34:23;2.03;;;0.50;;
71767;SDS011;59604;52.138;5.446;2022-09-28T12:42:38;2.08;;;0.50;;
71767;SDS011;59604;52.138;5.446;2022-09-28T12:45:31;1.95;;;0.50;;
71767;SDS011;59604;52.138;5.446;2022-09-28T12:59:59;3.35;;;0.90;;
71767;SDS011;59604;52.138;5.446;2022-09-28T13:02:40;2.67;;;0.80;;
71767;SDS011;59604;52.138;5.446;2022-09-28T13:11:26;2.70;;;0.70;;
71767;SDS011;59604;52.138;5.446;2022-09-28T13:20:16;2.08;;;0.60;;
71767;SDS011;59604;52.138;5.446;2022-09-28T13:23:08;2.25;;;0.63;;
71767;SDS011;59604;52.138;5.446;2022-09-28T13:28:47;4.50;;;1.10;;
71767;SDS011;59604;52.138;5.446;2022-09-28T13:31:17;3.53;;;0.77;;
71767;SDS011;59604;52.138;5.446;2022-09-28T13:33:58;2.53;;;0.70;;
71767;SDS011;59604;52.138;5.446;2022-09-28T13:38:54;2.80;;;0.80;;
71767;SDS011;59604;52.138;5.446;2022-09-28T13:41:34;3.13;;;0.75;;
71767;SDS011;59604;52.138;5.446;2022-09-28T13:52:26;3.47;;;0.90;;
71767;SDS011;59604;52.138;5.446;2022-09-28T13:55:20;6.60;;;3.80;;
71767;SDS011;59604;52.138;5.446;2022-09-28T13:57:54;3.08;;;0.80;;
71767;SDS011;59604;52.138;5.446;2022-09-28T14:11:42;15.13;;;9.65;;
71767;SDS011;59604;52.138;5.446;2022-09-28T14:16:41;3.70;;;1.52;;
71767;SDS011;59604;52.138;5.446;2022-09-28T14:19:19;3.80;;;1.08;;
71767;SDS011;59604;52.138;5.446;2022-09-28T14:31:06;2.10;;;0.52;;
71767;SDS011;59604;52.138;5.446;2022-09-28T14:33:39;2.13;;;0.65;;
71767;SDS011;59604;52.138;5.446;2022-09-28T14:36:20;1.75;;;0.55;;
71767;SDS011;59604;52.138;5.446;2022-09-28T14:39:27;5.13;;;2.03;;
71767;SDS011;59604;52.138;5.446;2022-09-28T14:42:16;5.03;;;2.17;;
71767;SDS011;59604;52.138;5.446;2022-09-28T14:47:42;4.47;;;1.30;;
71767;SDS011;59604;52.138;5.446;2022-09-28T14:50:17;2.78;;;0.70;;
71767;SDS011;59604;52.138;5.446;2022-09-28T14:52:51;2.60;;;0.60;;
71767;SDS011;59604;52.138;5.446;2022-09-28T14:55:27;3.15;;;0.80;;
71767;SDS011;59604;52.138;5.446;2022-09-28T14:57:57;2.63;;;0.70;;
71767;SDS011;59604;52.138;5.446;2022-09-28T15:00:25;3.10;;;0.77;;
71767;SDS011;59604;52.138;5.446;2022-09-28T15:02:58;3.58;;;1.70;;
71767;SDS011;59604;52.138;5.446;2022-09-28T15:05:37;3.20;;;1.00;;
71767;SDS011;59604;52.138;5.446;2022-09-28T15:08:09;2.67;;;0.93;;
71767;SDS011;59604;52.138;5.446;2022-09-28T15:10:38;7.03;;;2.85;;
71767;SDS011;59604;52.138;5.446;2022-09-28T15:15:53;4.68;;;1.85;;
71767;SDS011;59604;52.138;5.446;2022-09-28T15:21:18;2.40;;;0.70;;
71767;SDS011;59604;52.138;5.446;2022-09-28T15:23:46;5.45;;;2.40;;
71767;SDS011;59604;52.138;5.446;2022-09-28T15:26:23;3.97;;;1.50;;
71767;SDS011;59604;52.138;5.446;2022-09-28T15:28:53;3.72;;;1.50;;
71767;SDS011;59604;52.138;5.446;2022-09-28T15:31:21;4.05;;;1.00;;
71767;SDS011;59604;52.138;5.446;2022-09-28T15:33:51;2.92;;;0.80;;
71767;SDS011;59604;52.138;5.446;2022-09-28T15:36:37;3.55;;;0.70;;
71767;SDS011;59604;52.138;5.446;2022-09-28T15:39:16;3.03;;;0.80;;
71767;SDS011;59604;52.138;5.446;2022-09-28T15:41:46;5.07;;;1.50;;
71767;SDS011;59604;52.138;5.446;2022-09-28T15:44:18;8.50;;;4.00;;
71767;SDS011;59604;52.138;5.446;2022-09-28T15:46:49;4.07;;;1.20;;
71767;SDS011;59604;52.138;5.446;2022-09-28T15:49:31;4.53;;;1.13;;
71767;SDS011;59604;52.138;5.446;2022-09-28T15:52:04;3.85;;;1.20;;
71767;SDS011;59604;52.138;5.446;2022-09-28T15:54:35;3.92;;;1.40;;
71767;SDS011;59604;52.138;5.446;2022-09-28T15:57:09;6.00;;;1.92;;
71767;SDS011;59604;52.138;5.446;2022-09-28T15:59:54;3.83;;;1.40;;
71767;SDS011;59604;52.138;5.446;2022-09-28T16:02:24;3.78;;;1.13;;
71767;SDS011;59604;52.138;5.446;2022-09-28T16:04:53;4.47;;;1.10;;
71767;SDS011;59604;52.138;5.446;2022-09-28T16:09:57;4.13;;;1.10;;
71767;SDS011;59604;52.138;5.446;2022-09-28T16:15:04;4.43;;;1.60;;
71767;SDS011;59604;52.138;5.446;2022-09-28T16:17:37;7.65;;;3.70;;
71767;SDS011;59604;52.138;5.446;2022-09-28T16:20:17;8.88;;;5.25;;
71767;SDS011;59604;52.138;5.446;2022-09-28T16:22:46;7.88;;;4.30;;
71767;SDS011;59604;52.138;5.446;2022-09-28T16:25:17;6.43;;;3.45;;
71767;SDS011;59604;52.138;5.446;2022-09-28T16:27:49;2.65;;;0.80;;
71767;SDS011;59604;52.138;5.446;2022-09-28T16:30:27;3.28;;;1.15;;
71767;SDS011;59604;52.138;5.446;2022-09-28T16:32:58;4.28;;;2.38;;
71767;SDS011;59604;52.138;5.446;2022-09-28T16:35:31;3.08;;;1.00;;
71767;SDS011;59604;52.138;5.446;2022-09-28T16:38:15;4.30;;;1.92;;
71767;SDS011;59604;52.138;5.446;2022-09-28T16:40:49;3.28;;;1.00;;
71767;SDS011;59604;52.138;5.446;2022-09-28T16:43:24;3.47;;;0.93;;
71767;SDS011;59604;52.138;5.446;2022-09-28T16:45:53;3.60;;;1.20;;
71767;SDS011;59604;52.138;5.446;2022-09-28T16:48:25;2.55;;;0.82;;
71767;SDS011;59604;52.138;5.446;2022-09-28T16:50:54;2.55;;;0.77;;
71767;SDS011;59604;52.138;5.446;2022-09-28T16:53:21;2.45;;;0.70;;
71767;SDS011;59604;52.138;5.446;2022-09-28T16:56:07;3.45;;;0.98;;
71767;SDS011;59604;52.138;5.446;2022-09-28T16:58:34;3.33;;;0.93;;
71767;SDS011;59604;52.138;5.446;2022-09-28T17:01:01;2.38;;;0.60;;
71767;SDS011;59604;52.138;5.446;2022-09-28T17:03:28;3.22;;;1.10;;
71767;SDS011;59604;52.138;5.446;2022-09-28T17:05:55;2.80;;;0.90;;
71767;SDS011;59604;52.138;5.446;2022-09-28T17:08:22;3.25;;;1.08;;
71767;SDS011;59604;52.138;5.446;2022-09-28T17:13:45;3.17;;;1.00;;
71767;SDS011;59604;52.138;5.446;2022-09-28T17:16:16;3.75;;;1.55;;
71767;SDS011;59604;52.138;5.446;2022-09-28T17:19:15;3.80;;;1.83;;
71767;SDS011;59604;52.138;5.446;2022-09-28T17:21:44;6.18;;;2.42;;
71767;SDS011;59604;52.138;5.446;2022-09-28T17:24:11;4.05;;;1.70;;
71767;SDS011;59604;52.138;5.446;2022-09-28T17:26:40;3.92;;;1.70;;
71767;SDS011;59604;52.138;5.446;2022-09-28T17:29:11;6.25;;;2.10;;
71767;SDS011;59604;52.138;5.446;2022-09-28T17:31:43;5.25;;;1.77;;
71767;SDS011;59604;52.138;5.446;2022-09-28T17:34:11;4.20;;;1.75;;
71767;SDS011;59604;52.138;5.446;2022-09-28T17:36:41;4.65;;;1.70;;
71767;SDS011;59604;52.138;5.446;2022-09-28T17:39:10;4.13;;;1.52;;
71767;SDS011;59604;52.138;5.446;2022-09-28T17:41:41;7.32;;;1.90;;
71767;SDS011;59604;52.138;5.446;2022-09-28T17:44:07;4.45;;;1.65;;
71767;SDS011;59604;52.138;5.446;2022-09-28T17:46:35;4.60;;;1.85;;
71767;SDS011;59604;52.138;5.446;2022-09-28T17:49:05;6.40;;;2.70;;
71767;SDS011;59604;52.138;5.446;2022-09-28T17:51:33;5.38;;;1.80;;
71767;SDS011;59604;52.138;5.446;2022-09-28T17:54:03;7.30;;;3.20;;
71767;SDS011;59604;52.138;5.446;2022-09-28T17:56:31;6.70;;;2.90;;
71767;SDS011;59604;52.138;5.446;2022-09-28T17:59:02;7.00;;;3.35;;
71767;SDS011;59604;52.138;5.446;2022-09-28T18:01:31;8.65;;;3.80;;
71767;SDS011;59604;52.138;5.446;2022-09-28T18:04:00;9.60;;;4.22;;
71767;SDS011;59604;52.138;5.446;2022-09-28T18:06:28;7.65;;;3.30;;
71767;SDS011;59604;52.138;5.446;2022-09-28T18:08:57;8.48;;;3.00;;
71767;SDS011;59604;52.138;5.446;2022-09-28T18:11:24;7.28;;;3.05;;
71767;SDS011;59604;52.138;5.446;2022-09-28T18:13:51;8.45;;;3.20;;
71767;SDS011;59604;52.138;5.446;2022-09-28T18:16:17;7.57;;;3.13;;
71767;SDS011;59604;52.138;5.446;2022-09-28T18:18:44;7.10;;;3.03;;
71767;SDS011;59604;52.138;5.446;2022-09-28T18:21:12;7.53;;;3.60;;
71767;SDS011;59604;52.138;5.446;2022-09-28T18:23:39;11.10;;;4.10;;
71767;SDS011;59604;52.138;5.446;2022-09-28T18:26:10;9.95;;;3.55;;
71767;SDS011;59604;52.138;5.446;2022-09-28T18:28:38;8.23;;;3.40;;
71767;SDS011;59604;52.138;5.446;2022-09-28T18:31:06;7.80;;;3.45;;
71767;SDS011;59604;52.138;5.446;2022-09-28T18:33:33;9.13;;;3.80;;
71767;SDS011;59604;52.138;5.446;2022-09-28T18:36:00;11.57;;;3.92;;
71767;SDS011;59604;52.138;5.446;2022-09-28T18:38:27;11.23;;;4.97;;